Time;durP1;ratioP1;P1;durP2;ratioP2;P2;SDS_P1;SDS_P2;PMS_P1;PMS_P2;Temp;Humidity;BMP_temperature;BMP_pressure;BME280_temperature;BME280_humidity;BME280_pressure;Samples;Min_cycle;Max_cycle;Signal;HPM_P1;HPM_P2
2020/12/28 00:05:52;;;;;;;19.4;13.1;;;;;;;0.62;77.39941;96891.23;;;;
2020/12/28 00:15:53;;;;;;;23.9;14.1;;;;;;;0.45;77.57617;96877.67;;;;
2020/12/28 00:25:48;;;;;;;22.9;13.5;;;;;;;0.54;78.60742;96865.36;;;;
2020/12/28 00:35:47;;;;;;;16;11.5;;;;;;;0.46;78.65918;96856.17;;;;
2020/12/28 00:45:47;;;;;;;12.3;8;;;;;;;0.47;80.1582;96859.62;;;;
2020/12/28 00:55:41;;;;;;;12.2;6.5;;;;;;;1.09;81.02148;96852.38;;;;
2020/12/28 01:05:39;;;;;;;11.7;6.9;;;;;;;1.39;79.62305;96801.46;;;;
2020/12/28 01:15:37;;;;;;;12.4;7.9;;;;;;;1.04;79.17188;96799.42;;;;
2020/12/28 01:25:35;;;;;;;6.6;5.5;;;;;;;0.83;79.91602;96814.86;;;;
2020/12/28 01:35:33;;;;;;;10.6;6.4;;;;;;;0.48;79.43164;96810.86;;;;
2020/12/28 01:45:31;;;;;;;12.3;5.6;;;;;;;0.23;80.98145;96806.67;;;;
2020/12/28 01:55:29;;;;;;;14.2;4.8;;;;;;;0.08;82.19336;96776.93;;;;
2020/12/28 02:05:26;;;;;;;4.1;2.2;;;;;;;0.22;83.90332;96764.56;;;;
2020/12/28 02:15:24;;;;;;;10;4.7;;;;;;;0.38;83.61719;96740.22;;;;
2020/12/28 02:25:22;;;;;;;8.4;6.4;;;;;;;0.3;83.66797;96732.94;;;;
2020/12/28 02:35:20;;;;;;;11.8;6.1;;;;;;;0.25;84.01953;96705.71;;;;
2020/12/28 02:45:18;;;;;;;11.9;7.1;;;;;;;0.2;84.18555;96697.85;;;;
2020/12/28 02:55:15;;;;;;;8.5;4.4;;;;;;;0.43;83.93555;96703.06;;;;
2020/12/28 03:05:14;;;;;;;9.5;4.3;;;;;;;0.76;83.30566;96677.36;;;;
2020/12/28 03:15:11;;;;;;;7.1;4.4;;;;;;;0.91;82.38965;96653.22;;;;
2020/12/28 03:25:09;;;;;;;6;3.2;;;;;;;0.68;82.32129;96656.81;;;;
2020/12/28 03:35:07;;;;;;;6.9;3.8;;;;;;;0.73;82.88184;96630.2;;;;
2020/12/28 03:45:04;;;;;;;5.3;3.3;;;;;;;0.61;82.81445;96606.04;;;;
2020/12/28 03:55:02;;;;;;;5.5;2.6;;;;;;;0.55;83.39551;96596.61;;;;
2020/12/28 04:05:00;;;;;;;7.5;3.4;;;;;;;0.31;82.82227;96578.18;;;;
2020/12/28 04:14:58;;;;;;;6;3.1;;;;;;;-0.08;82.58203;96583.07;;;;
2020/12/28 04:24:55;;;;;;;4.6;2.2;;;;;;;-0.07;84.00195;96556.29;;;;
2020/12/28 04:34:53;;;;;;;3.1;1.5;;;;;;;-0.15;84.64355;96537.64;;;;
2020/12/28 04:44:51;;;;;;;2.7;1.3;;;;;;;-0.17;84.37695;96524.69;;;;
2020/12/28 04:54:49;;;;;;;2;1.2;;;;;;;-0.2;84.06348;96517.33;;;;
2020/12/28 05:04:46;;;;;;;3.4;2;;;;;;;0.15;85.04395;96518.61;;;;
2020/12/28 05:14:44;;;;;;;3.4;1.5;;;;;;;0.2;84.86621;96485.95;;;;
2020/12/28 05:24:44;;;;;;;4.9;2.1;;;;;;;0.2;83.58105;96480.66;;;;
2020/12/28 05:34:45;;;;;;;5;2.7;;;;;;;0.17;83.66113;96454.77;;;;
2020/12/28 05:44:37;;;;;;;4.6;2.5;;;;;;;0.07;83.65332;96449.66;;;;
2020/12/28 05:54:35;;;;;;;3.5;1.3;;;;;;;-0.03;84.25098;96432.85;;;;
2020/12/28 06:04:32;;;;;;;2.6;1;;;;;;;0.34;84.01563;96418.67;;;;
2020/12/28 06:14:30;;;;;;;2.4;1.1;;;;;;;1.19;82.13086;96422.44;;;;
2020/12/28 06:24:28;;;;;;;1.1;0.6;;;;;;;2.17;78.32031;96439.95;;;;
2020/12/28 06:34:26;;;;;;;2.1;1;;;;;;;2.73;76.00684;96455.17;;;;
2020/12/28 06:44:24;;;;;;;17.9;11.3;;;;;;;2;77.21582;96485.02;;;;
2020/12/28 06:54:22;;;;;;;10.7;3.4;;;;;;;1.39;78.61816;96469.73;;;;
2020/12/28 07:04:19;;;;;;;11.5;4.7;;;;;;;1.35;78.85449;96450.21;;;;
2020/12/28 07:14:17;;;;;;;8.1;4.4;;;;;;;1.1;79.70215;96408.33;;;;
2020/12/28 07:24:15;;;;;;;9.5;4.9;;;;;;;1.26;79.83105;96410.33;;;;
2020/12/28 07:34:13;;;;;;;12.9;6.6;;;;;;;1.32;79.67578;96453.47;;;;
2020/12/28 07:44:11;;;;;;;9.2;5.2;;;;;;;1.36;79.84961;96430.53;;;;
2020/12/28 07:54:08;;;;;;;4.3;1.8;;;;;;;1.91;79.48828;96370.74;;;;
2020/12/28 08:04:08;;;;;;;6.7;3.2;;;;;;;2.92;76.7832;96340.49;;;;
2020/12/28 08:14:04;;;;;;;11.2;6.3;;;;;;;3.36;76.09668;96344.72;;;;
2020/12/28 08:24:02;;;;;;;11.6;4.3;;;;;;;3.88;73.68945;96338.17;;;;
2020/12/28 08:34:01;;;;;;;14.4;12.1;;;;;;;4.09;74.26953;96316.92;;;;
2020/12/28 08:43:59;;;;;;;10;6.3;;;;;;;4.38;73.90723;96298.23;;;;
2020/12/28 08:53:57;;;;;;;6.9;4.6;;;;;;;4.7;73.12695;96312.78;;;;
2020/12/28 09:03:55;;;;;;;36.2;22.5;;;;;;;5.2;72.54102;96303.91;;;;
2020/12/28 09:13:54;;;;;;;21.5;12.9;;;;;;;5.62;69.76367;96278.66;;;;
2020/12/28 09:23:52;;;;;;;14.7;9.5;;;;;;;6.01;67.08496;96259.33;;;;
2020/12/28 09:33:51;;;;;;;11.6;7.5;;;;;;;6.3;66.00879;96236.92;;;;
2020/12/28 09:43:49;;;;;;;8.4;5.6;;;;;;;6.48;65.8125;96222.18;;;;
2020/12/28 09:53:47;;;;;;;6.7;4.6;;;;;;;6.41;66.6084;96229.22;;;;
2020/12/28 10:03:46;;;;;;;9;5.3;;;;;;;6.09;67.12988;96236.27;;;;
2020/12/28 10:13:44;;;;;;;10.5;6.1;;;;;;;5.85;68.31348;96242.38;;;;
2020/12/28 10:23:43;;;;;;;10.3;5.8;;;;;;;5.89;68.7666;96213.91;;;;
2020/12/28 10:33:43;;;;;;;8.3;5.7;;;;;;;6.04;69.45117;96213.2;;;;
2020/12/28 10:43:43;;;;;;;9.1;5.7;;;;;;;6.14;68.21289;96200.52;;;;
2020/12/28 10:53:38;;;;;;;5.4;3.1;;;;;;;6.48;64.9707;96199.99;;;;
2020/12/28 11:03:37;;;;;;;8.6;4.2;;;;;;;6.97;61.94531;96204.05;;;;
2020/12/28 11:13:35;;;;;;;6.4;3.4;;;;;;;6.95;62.13281;96227.7;;;;
2020/12/28 11:33:32;;;;;;;3.5;1.6;;;;;;;7.07;55.5791;96229.55;;;;
2020/12/28 11:43:31;;;;;;;3.5;2;;;;;;;7.11;55.87695;96251.86;;;;
2020/12/28 11:53:30;;;;;;;3;1.3;;;;;;;6.94;55.26953;96242.2;;;;
2020/12/28 12:03:29;;;;;;;2.6;1.8;;;;;;;6.7;54.73242;96242.28;;;;
2020/12/28 12:13:27;;;;;;;3.5;2.1;;;;;;;6.39;57.12109;96260.86;;;;
2020/12/28 12:23:25;;;;;;;3.9;2;;;;;;;6.25;57.55176;96237.14;;;;
2020/12/28 12:33:24;;;;;;;8.2;2.6;;;;;;;6.1;57.79004;96202.3;;;;
2020/12/28 12:43:22;;;;;;;5.2;3;;;;;;;6.01;58.27344;96195.17;;;;
2020/12/28 12:53:21;;;;;;;2.6;1;;;;;;;6.14;56.75098;96240.63;;;;
2020/12/28 13:03:19;;;;;;;3.5;1.7;;;;;;;6.15;56.38184;96272.36;;;;
2020/12/28 13:13:18;;;;;;;4.8;2.1;;;;;;;5.91;58.14648;96265.13;;;;
2020/12/28 13:23:16;;;;;;;2.9;1.6;;;;;;;6.07;57.73145;96279.38;;;;
2020/12/28 13:33:15;;;;;;;3.3;1.5;;;;;;;6.23;56.07813;96311.59;;;;
2020/12/28 13:43:14;;;;;;;9.5;5;;;;;;;6.19;56.94922;96308.02;;;;
2020/12/28 13:53:11;;;;;;;2.2;1;;;;;;;6.22;56.94141;96317.27;;;;
2020/12/28 14:03:10;;;;;;;2.3;1;;;;;;;6.34;56.08008;96306.58;;;;
2020/12/28 14:13:10;;;;;;;2.6;1.1;;;;;;;6.34;56.16992;96309.25;;;;
2020/12/28 14:23:06;;;;;;;2.9;1.4;;;;;;;6.13;57.57031;96346.81;;;;
2020/12/28 14:33:05;;;;;;;1.9;1;;;;;;;6.05;57.72949;96383.22;;;;
2020/12/28 14:43:03;;;;;;;2;0.8;;;;;;;6.05;57.51465;96345;;;;
2020/12/28 14:53:02;;;;;;;3;1;;;;;;;6.06;57.19043;96338.55;;;;
2020/12/28 15:03:00;;;;;;;4.4;2.1;;;;;;;5.95;58.45703;96340.88;;;;
2020/12/28 15:12:58;;;;;;;5.4;2;;;;;;;5.91;58.00098;96312.45;;;;
2020/12/28 15:22:57;;;;;;;4.1;1.8;;;;;;;6.04;57.03027;96333.52;;;;
2020/12/28 15:32:55;;;;;;;6.9;2.4;;;;;;;5.94;57.52246;96341.98;;;;
2020/12/28 15:42:53;;;;;;;12.6;3.9;;;;;;;5.74;57.63086;96372.2;;;;
2020/12/28 15:52:52;;;;;;;14.9;7.8;;;;;;;5.59;57.16211;96381.61;;;;
2020/12/28 16:02:50;;;;;;;18.5;13;;;;;;;5.4;57.04785;96402.7;;;;
2020/12/28 16:12:48;;;;;;;7.5;2.9;;;;;;;5.28;56.91797;96407.18;;;;
2020/12/28 16:22:46;;;;;;;6.9;3.5;;;;;;;5.27;56.99609;96429.67;;;;
2020/12/28 16:32:47;;;;;;;9;4.5;;;;;;;5.09;57.71191;96431.67;;;;
2020/12/28 16:42:43;;;;;;;7.2;4.4;;;;;;;4.99;58.94238;96416.83;;;;
2020/12/28 16:52:43;;;;;;;20.9;11.6;;;;;;;5.06;58.92773;96405.63;;;;
2020/12/28 17:02:39;;;;;;;9.7;6.9;;;;;;;5.19;57.99414;96388.57;;;;
2020/12/28 17:12:38;;;;;;;10.9;6.3;;;;;;;5.07;57.75293;96396.5;;;;
2020/12/28 17:22:36;;;;;;;11.7;5.6;;;;;;;4.8;58.5791;96397.78;;;;
2020/12/28 17:32:34;;;;;;;19.8;16.4;;;;;;;4.47;59.2627;96379;;;;
2020/12/28 17:42:32;;;;;;;19.4;15.5;;;;;;;4.21;61.33691;96354.32;;;;
2020/12/28 17:52:31;;;;;;;28.4;17.9;;;;;;;3.98;64.67285;96342.36;;;;
2020/12/28 18:02:29;;;;;;;35.1;25.8;;;;;;;3.75;65.53125;96357.02;;;;
2020/12/28 18:12:27;;;;;;;30.9;21.9;;;;;;;3.51;66.69727;96363.63;;;;
2020/12/28 18:22:25;;;;;;;28.5;19.7;;;;;;;3.45;66.56445;96350.8;;;;
2020/12/28 18:32:23;;;;;;;23.2;18.2;;;;;;;3.41;66.19141;96320.58;;;;
2020/12/28 18:42:21;;;;;;;22.1;16.7;;;;;;;3.48;65.64648;96345.63;;;;
2020/12/28 18:52:19;;;;;;;16.2;12.5;;;;;;;3.58;65.6709;96341.05;;;;
2020/12/28 19:02:17;;;;;;;20.7;14.2;;;;;;;3.61;65.13086;96293.27;;;;
2020/12/28 19:12:15;;;;;;;36.4;26.8;;;;;;;3.78;65.95898;96303.89;;;;
2020/12/28 19:22:14;;;;;;;22.5;17.2;;;;;;;3.84;64.9541;96299.94;;;;
2020/12/28 19:32:12;;;;;;;19.5;12.6;;;;;;;3.78;65.66895;96282.58;;;;
2020/12/28 19:42:10;;;;;;;19.6;14;;;;;;;3.69;65.67578;96262.38;;;;
2020/12/28 19:52:09;;;;;;;15.8;11.1;;;;;;;3.77;66.21387;96251.7;;;;
2020/12/28 20:02:06;;;;;;;19.1;14.1;;;;;;;3.73;67.19824;96248.11;;;;
2020/12/28 20:12:04;;;;;;;87.5;65.2;;;;;;;3.61;66.97852;96220.59;;;;
2020/12/28 20:22:02;;;;;;;56.1;41.5;;;;;;;3.46;67.73633;96214.7;;;;
2020/12/28 20:32:01;;;;;;;20.5;12.9;;;;;;;3.37;68.98828;96205.16;;;;
2020/12/28 20:41:59;;;;;;;23.7;17.9;;;;;;;3.31;70.71289;96196.58;;;;
2020/12/28 20:51:57;;;;;;;13.3;11;;;;;;;3.28;71.1084;96193.78;;;;
2020/12/28 21:01:55;;;;;;;33.7;24.2;;;;;;;3.21;71.44141;96180.97;;;;
2020/12/28 21:11:53;;;;;;;14.4;9.4;;;;;;;3.15;72.39648;96146.86;;;;
2020/12/28 21:21:51;;;;;;;12.9;9.4;;;;;;;3.23;73.04297;96140.73;;;;
2020/12/28 21:31:49;;;;;;;20.9;15.4;;;;;;;3.07;73.33789;96119.19;;;;
2020/12/28 21:41:47;;;;;;;23.3;12.7;;;;;;;2.98;74.30957;96121.11;;;;
2020/12/28 21:51:45;;;;;;;19.3;12.8;;;;;;;2.99;75.89941;96086.19;;;;
2020/12/28 22:01:49;;;;;;;17.3;11.4;;;;;;;3.67;75.13086;96084.27;;;;
2020/12/28 22:11:50;;;;;;;8.6;4.9;;;;;;;4.62;72.35547;96081.54;;;;
2020/12/28 22:21:40;;;;;;;8.2;5.1;;;;;;;4.88;71.28418;96062.59;;;;
2020/12/28 22:31:38;;;;;;;7.2;4.3;;;;;;;5.03;70.78613;96038.67;;;;
2020/12/28 22:41:36;;;;;;;9;5.6;;;;;;;4.82;71.29688;96048.7;;;;
2020/12/28 22:51:34;;;;;;;8;3.5;;;;;;;5.02;70.85059;96034.47;;;;
2020/12/28 23:01:33;;;;;;;6.1;3.9;;;;;;;5.2;70.40918;96031.58;;;;
2020/12/28 23:11:31;;;;;;;6.4;3.5;;;;;;;5.4;70.01953;96007.41;;;;
2020/12/28 23:21:29;;;;;;;7.2;3.4;;;;;;;5.35;70.26758;95990.81;;;;
2020/12/28 23:31:28;;;;;;;4.5;2.9;;;;;;;5.35;70.41309;95970.23;;;;
2020/12/28 23:41:26;;;;;;;7.2;3.1;;;;;;;5.74;69.40234;95949.19;;;;
2020/12/28 23:51:25;;;;;;;3.5;2.1;;;;;;;5.75;69.58301;95930.16;;;;
